createdAt,value
2022-09-24T00:03:13.972Z,13.4
2022-09-24T00:17:13.895Z,13.9
2022-09-24T00:31:13.955Z,13.3
2022-09-24T00:45:13.880Z,13.3
2022-09-24T00:59:14.118Z,13.0
2022-09-24T01:13:14.192Z,13.0
2022-09-24T01:27:14.102Z,13.0
2022-09-24T01:41:14.173Z,13.1
2022-09-24T01:55:14.177Z,13.0
2022-09-24T02:09:14.274Z,13.1
2022-09-24T02:23:14.300Z,13.0
2022-09-24T02:37:14.267Z,13.0
2022-09-24T02:51:14.298Z,13.0
2022-09-24T03:05:14.265Z,13.1
2022-09-24T03:19:14.288Z,13.3
2022-09-24T03:33:14.333Z,13.5
2022-09-24T03:47:14.314Z,13.5
2022-09-24T04:01:14.391Z,13.3
2022-09-24T04:15:14.378Z,13.1
2022-09-24T04:29:14.390Z,12.7
2022-09-24T04:43:14.427Z,12.3
2022-09-24T04:57:14.408Z,12.2
2022-09-24T05:12:14.560Z,12.3
2022-09-24T05:27:14.598Z,12.1
2022-09-24T05:42:14.597Z,12.6
2022-09-24T05:57:14.623Z,13.4
2022-09-24T06:13:14.682Z,14.0
2022-09-24T06:28:14.674Z,14.2
2022-09-24T06:43:14.754Z,14.8
2022-09-24T06:58:14.780Z,15.6
2022-09-24T07:13:14.765Z,16.7
2022-09-24T07:29:14.748Z,16.6
2022-09-24T07:45:14.780Z,16.4
2022-09-24T08:01:14.848Z,17.2
2022-09-24T08:17:14.805Z,17.8
2022-09-24T08:33:14.817Z,18.1
2022-09-24T08:48:14.838Z,18.2
2022-09-24T09:04:14.836Z,18.8
2022-09-24T09:19:14.874Z,18.7
2022-09-24T09:35:14.878Z,19.2
2022-09-24T09:50:14.899Z,19.6
2022-09-24T10:05:18.240Z,20.4
2022-09-24T10:20:14.986Z,20.4
2022-09-24T10:35:14.900Z,20.2
2022-09-24T10:50:14.908Z,19.7
2022-09-24T11:05:14.934Z,19.0
2022-09-24T11:20:14.942Z,19.2
2022-09-24T11:35:14.952Z,19.1
2022-09-24T11:50:14.958Z,19.0
2022-09-24T12:05:15.059Z,19.3
2022-09-24T12:20:15.006Z,18.8
2022-09-24T12:35:15.066Z,19.2
2022-09-24T12:51:15.084Z,18.6
2022-09-24T13:07:15.131Z,18.8
2022-09-24T13:23:15.108Z,18.6
2022-09-24T13:39:15.150Z,18.6
2022-09-24T13:55:15.177Z,18.4
2022-09-24T14:10:15.209Z,18.5
2022-09-24T14:26:15.466Z,17.8
2022-09-24T14:42:15.449Z,17.4
2022-09-24T14:57:15.466Z,17.4
2022-09-24T15:13:15.488Z,17.7
2022-09-24T15:28:15.475Z,18.1
2022-09-24T15:44:15.544Z,18.2
2022-09-24T16:00:15.517Z,17.9
2022-09-24T16:16:15.651Z,17.4
2022-09-24T16:32:15.739Z,16.5
2022-09-24T16:48:15.880Z,16.0
2022-09-24T17:03:15.958Z,15.8
2022-09-24T17:19:15.881Z,15.4
2022-09-24T17:34:15.879Z,15.1
2022-09-24T17:49:16.224Z,14.8
2022-09-24T18:03:15.901Z,14.8
2022-09-24T18:17:16.806Z,14.9
2022-09-24T18:31:16.024Z,15.1
2022-09-24T18:45:16.745Z,15.3
2022-09-24T18:59:17.408Z,15.2
2022-09-24T19:13:16.172Z,15.2
2022-09-24T19:27:16.003Z,15.0
2022-09-24T19:41:16.018Z,15.2
2022-09-24T19:55:16.959Z,15.1
2022-09-24T20:09:16.158Z,15.3
2022-09-24T20:23:16.202Z,15.2
2022-09-24T20:37:16.229Z,14.9
2022-09-24T20:51:16.221Z,14.8
2022-09-24T21:05:17.171Z,14.6
2022-09-24T21:19:16.236Z,14.3
2022-09-24T21:33:16.278Z,14.1
2022-09-24T21:47:16.287Z,13.8
2022-09-24T22:01:16.392Z,13.8
2022-09-24T22:15:16.635Z,13.8
2022-09-24T22:29:17.617Z,13.8
2022-09-24T22:43:16.893Z,13.7
2022-09-24T22:57:16.950Z,13.6
2022-09-24T23:11:17.219Z,13.3
2022-09-24T23:25:17.155Z,13.2
2022-09-24T23:39:17.163Z,13.3
2022-09-24T23:53:17.193Z,13.2
